»·PEaware :: UAL708 KABQ-KLAS

UAL708 :: KABQ-KLAS

FLIGHT INFORMATION

Flight Status: Arrived
Operator:
United Airlines
More flights by this operator :: More flights under this callsign
Pilot: Vincent D. (19759)
Aircraft: AIRBUS A320
(A320)
More flights by this aircraft type
Origin: KABQ Albuquerque Intl Sunport
United States
Destination: KLAS McCarran Intl
United States
More flights between these airports :: More routes between these airports
Route: +RDRNR3 GUP J72 DILCO J72 PGS TYSSN5
File this flight plan on PilotEdge
Remarks: Sample flight plan
Altitude:
(Current/Filed)
36,000ft
Speed:
(Current/Filed)
450kts
Departed: 26-Jul-18 04:50 PM
Arrived: 26-Jul-18 06:03 PM
Distance/Time
Traveled:
421nm/1:13
Distance/Time
To Go:
Arrived

Flight Plot

Page will automatically refresh every two minutes.

Flight plan parsing failed; only flown route is shown


Map Options




Map Legend


Flown Route
Filed Route
Departure Airport
Arrival Airport
Navaid (VOR, NDB)
Fix

Horizontal Profiles

Position Reports

Time Latitude Longitude Heading Altitude Ground
Speed
26-Jul-18 16:24 35.047024 -106.614033 310 5363ft 0kts
26-Jul-18 16:25 35.047024 -106.614033 310 5363ft 0kts
26-Jul-18 16:26 35.047024 -106.614033 310 5363ft 0kts
26-Jul-18 16:27 35.047024 -106.614033 310 5363ft 0kts
26-Jul-18 16:28 35.047024 -106.614033 310 5363ft 0kts
26-Jul-18 16:29 35.047024 -106.614033 310 5363ft 0kts
26-Jul-18 16:30 35.047024 -106.614033 310 5363ft 0kts
26-Jul-18 16:31 35.047024 -106.614033 310 5363ft 0kts
26-Jul-18 16:32 35.047024 -106.614033 310 5363ft 0kts
26-Jul-18 16:33 35.047024 -106.614033 310 5363ft 0kts
26-Jul-18 16:34 35.047024 -106.614033 310 5363ft 0kts
26-Jul-18 16:35 35.047024 -106.614033 310 5363ft 0kts
26-Jul-18 16:36 35.047024 -106.614033 310 5363ft 0kts
26-Jul-18 16:37 35.047024 -106.614033 310 5363ft 0kts
26-Jul-18 16:38 35.047024 -106.614033 310 5363ft 0kts
26-Jul-18 16:39 35.047024 -106.614033 310 5363ft 0kts
26-Jul-18 16:40 35.047024 -106.614033 310 5363ft 0kts
26-Jul-18 16:41 35.047024 -106.614033 310 5363ft 0kts
26-Jul-18 16:42 35.047024 -106.614033 310 5363ft 0kts
26-Jul-18 16:43 35.046795 -106.613702 309 5363ft 1kts
26-Jul-18 16:44 35.046824 -106.613150 213 5363ft 2kts
26-Jul-18 16:45 35.047029 -106.613079 183 5363ft 0kts
26-Jul-18 16:46 35.047029 -106.613079 183 5363ft 0kts
26-Jul-18 16:47 35.046029 -106.613292 205 5363ft 13kts
26-Jul-18 16:48 35.045571 -106.619100 269 5363ft 19kts
26-Jul-18 16:49 35.045320 -106.621313 201 5363ft 0kts
26-Jul-18 16:50 35.045121 -106.621382 188 5363ft 7kts
26-Jul-18 16:51 35.044262 -106.606494 89 5364ft 150kts
26-Jul-18 16:52 35.043512 -106.551236 90 7600ft 179kts
26-Jul-18 16:53 35.088678 -106.528812 322 9234ft 263kts
26-Jul-18 16:54 35.102306 -106.618333 264 11125ft 326kts
26-Jul-18 16:55 35.093719 -106.731738 264 13902ft 345kts
26-Jul-18 16:56 35.108475 -106.848102 283 16486ft 358kts
26-Jul-18 16:57 35.131399 -106.968644 283 18826ft 371kts
26-Jul-18 16:58 35.154755 -107.092228 283 20046ft 375kts
26-Jul-18 16:59 35.178166 -107.216795 283 21364ft 386kts
26-Jul-18 17:00 35.202388 -107.346460 283 23233ft 397kts
26-Jul-18 17:01 35.227067 -107.479437 283 24921ft 407kts
26-Jul-18 17:02 35.251147 -107.610023 283 26396ft 417kts
26-Jul-18 17:03 35.276322 -107.747458 282 27785ft 426kts
26-Jul-18 17:04 35.302327 -107.890420 282 29078ft 434kts
26-Jul-18 17:05 35.328600 -108.035890 282 30247ft 442kts
26-Jul-18 17:06 35.355122 -108.183826 282 31312ft 449kts
26-Jul-18 17:07 35.381936 -108.334523 282 32258ft 456kts
26-Jul-18 17:08 35.408692 -108.486087 282 33350ft 455kts
26-Jul-18 17:09 35.435114 -108.636917 282 34409ft 453kts
26-Jul-18 17:10 35.460633 -108.783677 281 35364ft 451kts
26-Jul-18 17:11 35.479232 -108.934988 273 36071ft 450kts
26-Jul-18 17:12 35.486825 -109.087504 273 36078ft 449kts
26-Jul-18 17:13 35.494288 -109.240291 273 36078ft 450kts
26-Jul-18 17:14 35.501492 -109.391697 273 36078ft 450kts
26-Jul-18 17:15 35.508575 -109.544640 273 36077ft 450kts
26-Jul-18 17:16 35.515393 -109.695987 272 36077ft 450kts
26-Jul-18 17:17 35.522093 -109.849019 272 36078ft 450kts
26-Jul-18 17:18 35.528552 -110.000929 272 36078ft 450kts
26-Jul-18 17:19 35.534551 -110.149513 272 36078ft 450kts
26-Jul-18 17:20 35.540348 -110.301151 272 36077ft 450kts
26-Jul-18 17:21 35.545960 -110.452699 272 36077ft 449kts
26-Jul-18 17:22 35.551420 -110.605306 272 36077ft 449kts
26-Jul-18 17:23 35.556660 -110.757115 272 36076ft 449kts
26-Jul-18 17:24 35.561746 -110.910016 272 36076ft 449kts
26-Jul-18 17:25 35.566633 -111.062786 272 36077ft 449kts
26-Jul-18 17:26 35.571327 -111.215555 272 36077ft 449kts
26-Jul-18 17:27 35.575836 -111.368587 272 36077ft 449kts
26-Jul-18 17:28 35.580138 -111.521162 272 36077ft 449kts
26-Jul-18 17:29 35.584197 -111.671827 271 36077ft 449kts
26-Jul-18 17:30 35.588110 -111.824153 271 36077ft 449kts
26-Jul-18 17:31 35.592556 -111.977370 272 36076ft 449kts
26-Jul-18 17:32 35.597332 -112.130554 272 36057ft 448kts
26-Jul-18 17:33 35.601832 -112.282325 272 34165ft 442kts
26-Jul-18 17:34 35.605808 -112.430525 271 32326ft 429kts
26-Jul-18 17:35 35.608775 -112.574689 271 30462ft 416kts
26-Jul-18 17:36 35.611516 -112.713051 271 28625ft 404kts
26-Jul-18 17:37 35.614056 -112.848767 271 26770ft 393kts
26-Jul-18 17:38 35.616370 -112.980052 271 24936ft 381kts
26-Jul-18 17:39 35.618521 -113.109440 271 24057ft 380kts
26-Jul-18 17:40 35.620517 -113.238022 271 24054ft 378kts
26-Jul-18 17:41 35.622310 -113.362702 271 23006ft 370kts
26-Jul-18 17:42 35.623975 -113.487185 271 21177ft 360kts
26-Jul-18 17:43 35.636998 -113.605046 286 19406ft 350kts
26-Jul-18 17:44 35.656837 -113.715747 280 17713ft 341kts
26-Jul-18 17:45 35.672186 -113.827020 279 16007ft 333kts
26-Jul-18 17:46 35.686303 -113.936693 278 14323ft 325kts
26-Jul-18 17:47 35.700048 -114.044937 278 12649ft 317kts
26-Jul-18 17:48 35.713519 -114.151717 278 12134ft 317kts
26-Jul-18 17:49 35.726832 -114.258071 278 12130ft 315kts
26-Jul-18 17:50 35.742021 -114.363818 295 12134ft 316kts
26-Jul-18 17:51 35.813059 -114.416309 339 11060ft 309kts
26-Jul-18 17:52 35.893312 -114.453963 339 10725ft 309kts
26-Jul-18 17:53 35.970611 -114.490260 339 10137ft 275kts
26-Jul-18 17:54 36.034070 -114.526376 306 10132ft 246kts
26-Jul-18 17:55 36.061005 -114.602060 292 9219ft 242kts
26-Jul-18 17:56 36.077072 -114.666860 273 8340ft 239kts
26-Jul-18 17:57 36.076586 -114.761617 269 6968ft 244kts
26-Jul-18 17:58 36.076794 -114.844372 267 6159ft 228kts
26-Jul-18 17:59 36.074515 -114.918449 267 5559ft 214kts
26-Jul-18 18:00 36.073030 -114.991549 268 4271ft 199kts
26-Jul-18 18:01 36.073708 -115.047278 269 3195ft 142kts
26-Jul-18 18:02 36.073692 -115.085940 269 2570ft 135kts
26-Jul-18 18:03 36.073643 -115.132232 269 2152ft 124kts
26-Jul-18 18:04 36.074365 -115.145215 298 2150ft 2kts
26-Jul-18 18:05 36.076249 -115.146594 358 2150ft 20kts
26-Jul-18 18:06 36.078018 -115.147156 336 2150ft 4kts
26-Jul-18 18:07 36.080811 -115.149208 318 2150ft 9kts
26-Jul-18 18:08 36.082263 -115.150510 338 2150ft 0kts
26-Jul-18 18:09 36.082263 -115.150510 338 2150ft 0kts

Navigation Log

Ident Type
Flight plan parsing failed, navigation log unavailable